sensor_id;sensor_type;location;lat;lon;timestamp;P1;durP1;ratioP1;P2;durP2;ratioP2
13607;SDS011;6875;50.852;5.672;2023-05-07T00:00:59;15.30;;;13.73;;
13607;SDS011;6875;50.852;5.672;2023-05-07T00:03:26;17.90;;;14.00;;
13607;SDS011;6875;50.852;5.672;2023-05-07T00:05:54;15.37;;;13.20;;
13607;SDS011;6875;50.852;5.672;2023-05-07T00:08:20;15.33;;;13.30;;
13607;SDS011;6875;50.852;5.672;2023-05-07T00:10:47;14.03;;;12.57;;
13607;SDS011;6875;50.852;5.672;2023-05-07T00:13:13;15.23;;;12.80;;
13607;SDS011;6875;50.852;5.672;2023-05-07T00:15:40;13.77;;;12.27;;
13607;SDS011;6875;50.852;5.672;2023-05-07T00:18:07;12.73;;;10.83;;
13607;SDS011;6875;50.852;5.672;2023-05-07T00:20:33;13.07;;;11.47;;
13607;SDS011;6875;50.852;5.672;2023-05-07T00:23:01;12.37;;;11.17;;
13607;SDS011;6875;50.852;5.672;2023-05-07T00:25:28;13.27;;;10.63;;
13607;SDS011;6875;50.852;5.672;2023-05-07T00:27:54;12.67;;;11.37;;
13607;SDS011;6875;50.852;5.672;2023-05-07T00:30:22;12.70;;;11.40;;
13607;SDS011;6875;50.852;5.672;2023-05-07T00:32:48;14.57;;;11.10;;
13607;SDS011;6875;50.852;5.672;2023-05-07T00:35:15;13.73;;;10.20;;
13607;SDS011;6875;50.852;5.672;2023-05-07T00:37:42;11.70;;;10.60;;
13607;SDS011;6875;50.852;5.672;2023-05-07T00:40:10;10.50;;;9.50;;
13607;SDS011;6875;50.852;5.672;2023-05-07T00:42:37;11.80;;;10.57;;
13607;SDS011;6875;50.852;5.672;2023-05-07T00:45:04;12.17;;;10.63;;
13607;SDS011;6875;50.852;5.672;2023-05-07T00:47:31;12.10;;;10.63;;
13607;SDS011;6875;50.852;5.672;2023-05-07T00:49:58;12.80;;;10.33;;
13607;SDS011;6875;50.852;5.672;2023-05-07T00:52:25;14.40;;;10.03;;
13607;SDS011;6875;50.852;5.672;2023-05-07T00:54:52;11.67;;;10.03;;
13607;SDS011;6875;50.852;5.672;2023-05-07T00:57:20;11.20;;;9.90;;
13607;SDS011;6875;50.852;5.672;2023-05-07T00:59:47;14.70;;;10.27;;
13607;SDS011;6875;50.852;5.672;2023-05-07T01:02:13;10.83;;;9.00;;
13607;SDS011;6875;50.852;5.672;2023-05-07T01:04:40;11.97;;;10.23;;
13607;SDS011;6875;50.852;5.672;2023-05-07T01:07:06;10.70;;;9.60;;
13607;SDS011;6875;50.852;5.672;2023-05-07T01:09:33;11.20;;;10.10;;
13607;SDS011;6875;50.852;5.672;2023-05-07T01:12:01;12.57;;;9.93;;
13607;SDS011;6875;50.852;5.672;2023-05-07T01:14:29;10.23;;;9.10;;
13607;SDS011;6875;50.852;5.672;2023-05-07T01:16:56;11.77;;;10.20;;
13607;SDS011;6875;50.852;5.672;2023-05-07T01:19:23;11.13;;;10.10;;
13607;SDS011;6875;50.852;5.672;2023-05-07T01:21:50;11.73;;;10.13;;
13607;SDS011;6875;50.852;5.672;2023-05-07T01:24:18;11.20;;;9.77;;
13607;SDS011;6875;50.852;5.672;2023-05-07T01:26:45;11.77;;;10.03;;
13607;SDS011;6875;50.852;5.672;2023-05-07T01:29:11;12.53;;;10.10;;
13607;SDS011;6875;50.852;5.672;2023-05-07T01:31:38;12.77;;;11.07;;
13607;SDS011;6875;50.852;5.672;2023-05-07T01:34:05;12.27;;;9.60;;
13607;SDS011;6875;50.852;5.672;2023-05-07T01:36:33;11.20;;;10.00;;
13607;SDS011;6875;50.852;5.672;2023-05-07T01:39:00;11.43;;;10.30;;
13607;SDS011;6875;50.852;5.672;2023-05-07T01:41:29;11.00;;;10.00;;
13607;SDS011;6875;50.852;5.672;2023-05-07T01:43:56;11.30;;;9.67;;
13607;SDS011;6875;50.852;5.672;2023-05-07T01:46:23;12.23;;;10.43;;
13607;SDS011;6875;50.852;5.672;2023-05-07T01:48:50;12.10;;;10.40;;
13607;SDS011;6875;50.852;5.672;2023-05-07T01:51:17;11.07;;;9.90;;
13607;SDS011;6875;50.852;5.672;2023-05-07T01:53:44;12.67;;;11.30;;
13607;SDS011;6875;50.852;5.672;2023-05-07T01:56:15;14.30;;;11.00;;
13607;SDS011;6875;50.852;5.672;2023-05-07T01:58:45;12.67;;;11.37;;
13607;SDS011;6875;50.852;5.672;2023-05-07T02:01:12;12.90;;;11.67;;
13607;SDS011;6875;50.852;5.672;2023-05-07T02:03:39;14.27;;;11.67;;
13607;SDS011;6875;50.852;5.672;2023-05-07T02:06:05;15.87;;;12.13;;
13607;SDS011;6875;50.852;5.672;2023-05-07T02:08:32;14.57;;;13.07;;
13607;SDS011;6875;50.852;5.672;2023-05-07T02:10:59;13.30;;;12.00;;
13607;SDS011;6875;50.852;5.672;2023-05-07T02:13:26;15.13;;;12.63;;
13607;SDS011;6875;50.852;5.672;2023-05-07T02:15:56;17.73;;;12.60;;
13607;SDS011;6875;50.852;5.672;2023-05-07T02:18:23;16.23;;;13.63;;
13607;SDS011;6875;50.852;5.672;2023-05-07T02:20:49;16.07;;;12.83;;
13607;SDS011;6875;50.852;5.672;2023-05-07T02:23:17;15.43;;;13.77;;
13607;SDS011;6875;50.852;5.672;2023-05-07T02:25:43;16.43;;;14.60;;
13607;SDS011;6875;50.852;5.672;2023-05-07T02:28:11;16.07;;;14.00;;
13607;SDS011;6875;50.852;5.672;2023-05-07T02:30:38;16.07;;;14.37;;
13607;SDS011;6875;50.852;5.672;2023-05-07T02:33:06;19.07;;;15.27;;
13607;SDS011;6875;50.852;5.672;2023-05-07T02:35:33;17.33;;;15.07;;
13607;SDS011;6875;50.852;5.672;2023-05-07T02:38:00;18.70;;;14.87;;
13607;SDS011;6875;50.852;5.672;2023-05-07T02:40:27;18.67;;;16.47;;
13607;SDS011;6875;50.852;5.672;2023-05-07T02:42:54;18.77;;;16.03;;
13607;SDS011;6875;50.852;5.672;2023-05-07T02:45:21;17.90;;;15.47;;
13607;SDS011;6875;50.852;5.672;2023-05-07T02:47:47;17.00;;;15.20;;
13607;SDS011;6875;50.852;5.672;2023-05-07T02:50:15;17.00;;;15.23;;
13607;SDS011;6875;50.852;5.672;2023-05-07T02:52:42;17.00;;;15.30;;
13607;SDS011;6875;50.852;5.672;2023-05-07T02:55:08;20.00;;;16.43;;
13607;SDS011;6875;50.852;5.672;2023-05-07T02:57:35;18.77;;;16.37;;
13607;SDS011;6875;50.852;5.672;2023-05-07T03:00:09;19.40;;;16.50;;
13607;SDS011;6875;50.852;5.672;2023-05-07T03:02:37;19.97;;;17.83;;
13607;SDS011;6875;50.852;5.672;2023-05-07T03:05:03;19.80;;;17.70;;
13607;SDS011;6875;50.852;5.672;2023-05-07T03:07:32;22.33;;;18.93;;
13607;SDS011;6875;50.852;5.672;2023-05-07T03:09:59;19.43;;;17.43;;
13607;SDS011;6875;50.852;5.672;2023-05-07T03:12:25;23.20;;;18.83;;
13607;SDS011;6875;50.852;5.672;2023-05-07T03:14:52;21.20;;;18.90;;
13607;SDS011;6875;50.852;5.672;2023-05-07T03:17:18;21.33;;;18.77;;
13607;SDS011;6875;50.852;5.672;2023-05-07T03:19:46;21.77;;;18.87;;
13607;SDS011;6875;50.852;5.672;2023-05-07T03:22:12;23.00;;;19.30;;
13607;SDS011;6875;50.852;5.672;2023-05-07T03:24:40;21.93;;;19.37;;
13607;SDS011;6875;50.852;5.672;2023-05-07T03:27:07;22.17;;;19.73;;
13607;SDS011;6875;50.852;5.672;2023-05-07T03:29:33;22.90;;;20.30;;
13607;SDS011;6875;50.852;5.672;2023-05-07T03:32:00;23.47;;;21.17;;
13607;SDS011;6875;50.852;5.672;2023-05-07T03:34:26;23.13;;;20.60;;
13607;SDS011;6875;50.852;5.672;2023-05-07T03:36:53;25.13;;;20.43;;
13607;SDS011;6875;50.852;5.672;2023-05-07T03:39:19;23.07;;;20.57;;
13607;SDS011;6875;50.852;5.672;2023-05-07T03:41:47;24.07;;;20.13;;
13607;SDS011;6875;50.852;5.672;2023-05-07T03:44:13;26.90;;;21.07;;
13607;SDS011;6875;50.852;5.672;2023-05-07T03:46:40;23.80;;;20.83;;
13607;SDS011;6875;50.852;5.672;2023-05-07T03:49:06;24.83;;;20.93;;
13607;SDS011;6875;50.852;5.672;2023-05-07T03:51:33;25.10;;;21.70;;
13607;SDS011;6875;50.852;5.672;2023-05-07T03:54:01;24.90;;;21.07;;
13607;SDS011;6875;50.852;5.672;2023-05-07T03:56:27;25.13;;;21.27;;
13607;SDS011;6875;50.852;5.672;2023-05-07T03:58:55;24.93;;;22.23;;
13607;SDS011;6875;50.852;5.672;2023-05-07T04:01:22;25.17;;;22.50;;
13607;SDS011;6875;50.852;5.672;2023-05-07T04:03:48;26.67;;;23.73;;
13607;SDS011;6875;50.852;5.672;2023-05-07T04:06:15;27.37;;;22.23;;
13607;SDS011;6875;50.852;5.672;2023-05-07T04:08:42;28.57;;;24.83;;
13607;SDS011;6875;50.852;5.672;2023-05-07T04:11:08;31.40;;;24.60;;
13607;SDS011;6875;50.852;5.672;2023-05-07T04:13:35;29.57;;;24.43;;
13607;SDS011;6875;50.852;5.672;2023-05-07T04:16:03;28.47;;;24.40;;
13607;SDS011;6875;50.852;5.672;2023-05-07T04:18:30;29.17;;;25.00;;
13607;SDS011;6875;50.852;5.672;2023-05-07T04:20:57;28.17;;;24.83;;
13607;SDS011;6875;50.852;5.672;2023-05-07T04:23:24;35.33;;;27.17;;
13607;SDS011;6875;50.852;5.672;2023-05-07T04:25:50;29.97;;;26.77;;
13607;SDS011;6875;50.852;5.672;2023-05-07T04:28:17;32.27;;;27.90;;
13607;SDS011;6875;50.852;5.672;2023-05-07T04:30:44;30.83;;;27.37;;
13607;SDS011;6875;50.852;5.672;2023-05-07T04:33:11;31.27;;;26.87;;
13607;SDS011;6875;50.852;5.672;2023-05-07T04:35:40;35.90;;;28.07;;
13607;SDS011;6875;50.852;5.672;2023-05-07T04:38:07;32.00;;;27.67;;
13607;SDS011;6875;50.852;5.672;2023-05-07T04:40:35;31.80;;;27.43;;
13607;SDS011;6875;50.852;5.672;2023-05-07T04:43:01;34.23;;;27.80;;
13607;SDS011;6875;50.852;5.672;2023-05-07T04:45:29;30.90;;;27.50;;
13607;SDS011;6875;50.852;5.672;2023-05-07T04:47:56;32.27;;;27.63;;
13607;SDS011;6875;50.852;5.672;2023-05-07T04:50:24;37.10;;;29.10;;
13607;SDS011;6875;50.852;5.672;2023-05-07T04:52:50;31.80;;;27.57;;
13607;SDS011;6875;50.852;5.672;2023-05-07T04:55:17;31.63;;;27.40;;
13607;SDS011;6875;50.852;5.672;2023-05-07T04:57:44;33.13;;;29.53;;
13607;SDS011;6875;50.852;5.672;2023-05-07T05:00:10;33.40;;;28.93;;
13607;SDS011;6875;50.852;5.672;2023-05-07T05:02:39;34.27;;;28.13;;
13607;SDS011;6875;50.852;5.672;2023-05-07T05:05:06;30.70;;;26.40;;
13607;SDS011;6875;50.852;5.672;2023-05-07T05:07:34;31.33;;;27.37;;
13607;SDS011;6875;50.852;5.672;2023-05-07T05:10:01;34.03;;;28.70;;
13607;SDS011;6875;50.852;5.672;2023-05-07T05:12:28;35.90;;;28.27;;
13607;SDS011;6875;50.852;5.672;2023-05-07T05:14:55;31.00;;;27.63;;
13607;SDS011;6875;50.852;5.672;2023-05-07T05:17:21;35.00;;;29.07;;
13607;SDS011;6875;50.852;5.672;2023-05-07T05:19:48;33.93;;;29.00;;
13607;SDS011;6875;50.852;5.672;2023-05-07T05:22:15;33.10;;;29.47;;
13607;SDS011;6875;50.852;5.672;2023-05-07T05:24:43;33.20;;;28.27;;
13607;SDS011;6875;50.852;5.672;2023-05-07T05:27:10;32.77;;;29.00;;
13607;SDS011;6875;50.852;5.672;2023-05-07T05:29:36;34.50;;;30.40;;
13607;SDS011;6875;50.852;5.672;2023-05-07T05:32:03;35.17;;;30.13;;
13607;SDS011;6875;50.852;5.672;2023-05-07T05:34:30;36.70;;;30.33;;
13607;SDS011;6875;50.852;5.672;2023-05-07T05:36:58;35.03;;;30.60;;
13607;SDS011;6875;50.852;5.672;2023-05-07T05:39:25;37.33;;;31.57;;
13607;SDS011;6875;50.852;5.672;2023-05-07T05:41:52;38.30;;;34.10;;
13607;SDS011;6875;50.852;5.672;2023-05-07T05:44:19;43.63;;;36.20;;
13607;SDS011;6875;50.852;5.672;2023-05-07T05:46:46;43.13;;;36.50;;
13607;SDS011;6875;50.852;5.672;2023-05-07T05:49:12;41.17;;;36.07;;
13607;SDS011;6875;50.852;5.672;2023-05-07T05:51:39;46.63;;;39.10;;
13607;SDS011;6875;50.852;5.672;2023-05-07T05:54:05;47.00;;;40.17;;
13607;SDS011;6875;50.852;5.672;2023-05-07T05:56:32;49.37;;;40.67;;
13607;SDS011;6875;50.852;5.672;2023-05-07T05:59:00;48.03;;;40.03;;
13607;SDS011;6875;50.852;5.672;2023-05-07T06:01:26;53.40;;;41.23;;
13607;SDS011;6875;50.852;5.672;2023-05-07T06:03:53;53.70;;;42.63;;
13607;SDS011;6875;50.852;5.672;2023-05-07T06:06:19;52.97;;;41.37;;
13607;SDS011;6875;50.852;5.672;2023-05-07T06:08:46;49.70;;;41.37;;
13607;SDS011;6875;50.852;5.672;2023-05-07T06:11:12;47.60;;;39.80;;
13607;SDS011;6875;50.852;5.672;2023-05-07T06:13:39;50.03;;;40.03;;
13607;SDS011;6875;50.852;5.672;2023-05-07T06:16:07;47.10;;;39.80;;
13607;SDS011;6875;50.852;5.672;2023-05-07T06:18:34;45.27;;;38.77;;
13607;SDS011;6875;50.852;5.672;2023-05-07T06:21:01;45.70;;;38.90;;
13607;SDS011;6875;50.852;5.672;2023-05-07T06:23:27;44.80;;;37.77;;
13607;SDS011;6875;50.852;5.672;2023-05-07T06:25:54;41.47;;;36.20;;
13607;SDS011;6875;50.852;5.672;2023-05-07T06:28:20;45.30;;;37.73;;
13607;SDS011;6875;50.852;5.672;2023-05-07T06:30:47;46.97;;;39.83;;
13607;SDS011;6875;50.852;5.672;2023-05-07T06:33:16;46.17;;;38.07;;
13607;SDS011;6875;50.852;5.672;2023-05-07T06:35:42;43.00;;;36.60;;
13607;SDS011;6875;50.852;5.672;2023-05-07T06:38:09;46.30;;;38.80;;
13607;SDS011;6875;50.852;5.672;2023-05-07T06:40:37;45.07;;;37.30;;
13607;SDS011;6875;50.852;5.672;2023-05-07T06:43:03;46.17;;;37.23;;
13607;SDS011;6875;50.852;5.672;2023-05-07T06:45:30;46.47;;;36.67;;
13607;SDS011;6875;50.852;5.672;2023-05-07T06:47:57;45.87;;;36.00;;
13607;SDS011;6875;50.852;5.672;2023-05-07T06:50:24;42.47;;;36.63;;
13607;SDS011;6875;50.852;5.672;2023-05-07T06:52:51;43.37;;;34.77;;
13607;SDS011;6875;50.852;5.672;2023-05-07T06:55:18;38.90;;;34.53;;
13607;SDS011;6875;50.852;5.672;2023-05-07T06:57:44;40.33;;;33.70;;
13607;SDS011;6875;50.852;5.672;2023-05-07T07:00:12;39.23;;;34.67;;
13607;SDS011;6875;50.852;5.672;2023-05-07T07:02:39;41.90;;;34.50;;
13607;SDS011;6875;50.852;5.672;2023-05-07T07:05:06;39.50;;;34.27;;
13607;SDS011;6875;50.852;5.672;2023-05-07T07:07:35;39.10;;;34.67;;
13607;SDS011;6875;50.852;5.672;2023-05-07T07:10:01;37.23;;;32.20;;
13607;SDS011;6875;50.852;5.672;2023-05-07T07:12:30;36.27;;;30.73;;
13607;SDS011;6875;50.852;5.672;2023-05-07T07:14:57;35.63;;;30.67;;
13607;SDS011;6875;50.852;5.672;2023-05-07T07:17:25;35.20;;;30.37;;
13607;SDS011;6875;50.852;5.672;2023-05-07T07:19:52;33.93;;;30.23;;
13607;SDS011;6875;50.852;5.672;2023-05-07T07:22:18;31.80;;;28.33;;
13607;SDS011;6875;50.852;5.672;2023-05-07T07:24:46;31.60;;;26.73;;
13607;SDS011;6875;50.852;5.672;2023-05-07T07:27:13;31.50;;;27.53;;
13607;SDS011;6875;50.852;5.672;2023-05-07T07:29:40;29.37;;;26.27;;
13607;SDS011;6875;50.852;5.672;2023-05-07T07:32:07;29.17;;;26.23;;
13607;SDS011;6875;50.852;5.672;2023-05-07T07:34:33;27.57;;;24.00;;
13607;SDS011;6875;50.852;5.672;2023-05-07T07:37:00;27.97;;;24.97;;
13607;SDS011;6875;50.852;5.672;2023-05-07T07:39:30;25.80;;;23.10;;
13607;SDS011;6875;50.852;5.672;2023-05-07T07:41:58;29.03;;;25.90;;
13607;SDS011;6875;50.852;5.672;2023-05-07T07:44:25;29.63;;;25.87;;
13607;SDS011;6875;50.852;5.672;2023-05-07T07:46:53;28.70;;;25.80;;
13607;SDS011;6875;50.852;5.672;2023-05-07T07:49:19;30.20;;;26.30;;
13607;SDS011;6875;50.852;5.672;2023-05-07T07:51:46;30.83;;;27.50;;
13607;SDS011;6875;50.852;5.672;2023-05-07T07:54:16;29.67;;;25.77;;
13607;SDS011;6875;50.852;5.672;2023-05-07T07:56:42;30.30;;;24.63;;
13607;SDS011;6875;50.852;5.672;2023-05-07T07:59:11;28.83;;;25.73;;
13607;SDS011;6875;50.852;5.672;2023-05-07T08:01:38;26.33;;;23.53;;
13607;SDS011;6875;50.852;5.672;2023-05-07T08:04:05;27.13;;;23.97;;
13607;SDS011;6875;50.852;5.672;2023-05-07T08:06:32;27.63;;;24.50;;
13607;SDS011;6875;50.852;5.672;2023-05-07T08:08:58;29.03;;;25.90;;
13607;SDS011;6875;50.852;5.672;2023-05-07T08:11:25;28.23;;;25.23;;
13607;SDS011;6875;50.852;5.672;2023-05-07T08:13:51;31.13;;;26.27;;
13607;SDS011;6875;50.852;5.672;2023-05-07T08:16:19;27.20;;;24.37;;
13607;SDS011;6875;50.852;5.672;2023-05-07T08:18:46;28.83;;;25.93;;
13607;SDS011;6875;50.852;5.672;2023-05-07T08:21:12;27.27;;;24.50;;
13607;SDS011;6875;50.852;5.672;2023-05-07T08:23:39;25.60;;;22.77;;
13607;SDS011;6875;50.852;5.672;2023-05-07T08:26:07;27.53;;;23.80;;
13607;SDS011;6875;50.852;5.672;2023-05-07T08:28:33;25.57;;;22.43;;
13607;SDS011;6875;50.852;5.672;2023-05-07T08:31:00;24.40;;;21.90;;
13607;SDS011;6875;50.852;5.672;2023-05-07T08:33:28;25.43;;;22.50;;
13607;SDS011;6875;50.852;5.672;2023-05-07T08:35:54;26.17;;;22.57;;
13607;SDS011;6875;50.852;5.672;2023-05-07T08:38:21;23.87;;;21.27;;
13607;SDS011;6875;50.852;5.672;2023-05-07T08:40:48;25.03;;;21.43;;
13607;SDS011;6875;50.852;5.672;2023-05-07T08:43:15;24.07;;;21.50;;
13607;SDS011;6875;50.852;5.672;2023-05-07T08:45:43;23.50;;;21.10;;
13607;SDS011;6875;50.852;5.672;2023-05-07T08:48:14;21.43;;;19.27;;
13607;SDS011;6875;50.852;5.672;2023-05-07T08:50:42;20.67;;;18.50;;
13607;SDS011;6875;50.852;5.672;2023-05-07T08:53:09;20.33;;;18.23;;
13607;SDS011;6875;50.852;5.672;2023-05-07T08:55:35;20.60;;;18.40;;
13607;SDS011;6875;50.852;5.672;2023-05-07T08:58:02;20.57;;;18.43;;
13607;SDS011;6875;50.852;5.672;2023-05-07T09:00:29;21.40;;;17.20;;
13607;SDS011;6875;50.852;5.672;2023-05-07T09:02:56;19.03;;;16.97;;
13607;SDS011;6875;50.852;5.672;2023-05-07T09:05:22;17.93;;;16.00;;
13607;SDS011;6875;50.852;5.672;2023-05-07T09:07:50;19.50;;;17.20;;
13607;SDS011;6875;50.852;5.672;2023-05-07T09:10:16;16.83;;;15.07;;
13607;SDS011;6875;50.852;5.672;2023-05-07T09:12:43;17.53;;;15.63;;
13607;SDS011;6875;50.852;5.672;2023-05-07T09:15:10;17.17;;;15.03;;
13607;SDS011;6875;50.852;5.672;2023-05-07T09:17:37;16.90;;;15.20;;
13607;SDS011;6875;50.852;5.672;2023-05-07T09:20:04;18.67;;;16.60;;
13607;SDS011;6875;50.852;5.672;2023-05-07T09:22:31;17.23;;;14.80;;
13607;SDS011;6875;50.852;5.672;2023-05-07T09:24:59;16.77;;;15.07;;
13607;SDS011;6875;50.852;5.672;2023-05-07T09:27:26;19.30;;;15.27;;
13607;SDS011;6875;50.852;5.672;2023-05-07T09:29:52;16.87;;;15.10;;
13607;SDS011;6875;50.852;5.672;2023-05-07T09:32:19;17.00;;;15.30;;
13607;SDS011;6875;50.852;5.672;2023-05-07T09:34:46;18.90;;;15.73;;
13607;SDS011;6875;50.852;5.672;2023-05-07T09:37:12;18.10;;;15.37;;
13607;SDS011;6875;50.852;5.672;2023-05-07T09:39:39;15.43;;;13.90;;
13607;SDS011;6875;50.852;5.672;2023-05-07T09:42:08;17.37;;;15.43;;
13607;SDS011;6875;50.852;5.672;2023-05-07T09:44:35;16.27;;;14.60;;
13607;SDS011;6875;50.852;5.672;2023-05-07T09:47:03;18.83;;;16.00;;
13607;SDS011;6875;50.852;5.672;2023-05-07T09:49:32;17.13;;;15.30;;
13607;SDS011;6875;50.852;5.672;2023-05-07T09:52:00;18.37;;;16.43;;
13607;SDS011;6875;50.852;5.672;2023-05-07T09:54:27;19.90;;;16.40;;
13607;SDS011;6875;50.852;5.672;2023-05-07T09:56:56;18.40;;;16.47;;
13607;SDS011;6875;50.852;5.672;2023-05-07T09:59:26;20.17;;;18.17;;
13607;SDS011;6875;50.852;5.672;2023-05-07T10:01:53;18.83;;;16.93;;
13607;SDS011;6875;50.852;5.672;2023-05-07T10:04:23;19.43;;;16.50;;
13607;SDS011;6875;50.852;5.672;2023-05-07T10:06:50;19.27;;;17.37;;
13607;SDS011;6875;50.852;5.672;2023-05-07T10:09:18;18.67;;;16.70;;
13607;SDS011;6875;50.852;5.672;2023-05-07T10:11:45;20.17;;;18.07;;
13607;SDS011;6875;50.852;5.672;2023-05-07T10:14:12;18.87;;;16.30;;
13607;SDS011;6875;50.852;5.672;2023-05-07T10:16:39;17.90;;;16.00;;
13607;SDS011;6875;50.852;5.672;2023-05-07T10:19:08;18.63;;;16.93;;
13607;SDS011;6875;50.852;5.672;2023-05-07T10:21:36;16.97;;;14.03;;
13607;SDS011;6875;50.852;5.672;2023-05-07T10:24:04;15.57;;;14.03;;
13607;SDS011;6875;50.852;5.672;2023-05-07T10:26:33;14.67;;;12.57;;
13607;SDS011;6875;50.852;5.672;2023-05-07T10:29:02;14.63;;;13.00;;
13607;SDS011;6875;50.852;5.672;2023-05-07T10:31:42;15.00;;;13.47;;
13607;SDS011;6875;50.852;5.672;2023-05-07T10:34:15;15.77;;;14.23;;
13607;SDS011;6875;50.852;5.672;2023-05-07T10:36:44;16.47;;;14.23;;
13607;SDS011;6875;50.852;5.672;2023-05-07T10:39:10;15.90;;;14.17;;
13607;SDS011;6875;50.852;5.672;2023-05-07T10:41:37;15.10;;;13.53;;
13607;SDS011;6875;50.852;5.672;2023-05-07T10:44:03;16.93;;;15.13;;
13607;SDS011;6875;50.852;5.672;2023-05-07T10:46:30;17.87;;;15.50;;
13607;SDS011;6875;50.852;5.672;2023-05-07T10:49:07;17.67;;;15.87;;
13607;SDS011;6875;50.852;5.672;2023-05-07T10:51:36;17.07;;;15.47;;
13607;SDS011;6875;50.852;5.672;2023-05-07T10:54:19;17.43;;;15.17;;
13607;SDS011;6875;50.852;5.672;2023-05-07T10:56:46;17.53;;;15.80;;
13607;SDS011;6875;50.852;5.672;2023-05-07T10:59:34;18.93;;;16.90;;
13607;SDS011;6875;50.852;5.672;2023-05-07T11:02:08;19.00;;;17.00;;
13607;SDS011;6875;50.852;5.672;2023-05-07T11:04:37;19.70;;;17.30;;
13607;SDS011;6875;50.852;5.672;2023-05-07T11:09:57;18.50;;;16.60;;
13607;SDS011;6875;50.852;5.672;2023-05-07T11:15:34;19.97;;;16.67;;
13607;SDS011;6875;50.852;5.672;2023-05-07T11:18:06;18.80;;;17.00;;
13607;SDS011;6875;50.852;5.672;2023-05-07T11:26:44;19.17;;;17.20;;
13607;SDS011;6875;50.852;5.672;2023-05-07T11:29:12;19.33;;;17.37;;
13607;SDS011;6875;50.852;5.672;2023-05-07T11:31:39;19.30;;;17.40;;
13607;SDS011;6875;50.852;5.672;2023-05-07T11:34:06;20.77;;;18.60;;
13607;SDS011;6875;50.852;5.672;2023-05-07T11:36:35;19.20;;;17.30;;
13607;SDS011;6875;50.852;5.672;2023-05-07T11:39:02;20.23;;;17.03;;
13607;SDS011;6875;50.852;5.672;2023-05-07T11:41:34;19.33;;;17.40;;
13607;SDS011;6875;50.852;5.672;2023-05-07T11:44:02;18.50;;;16.57;;
13607;SDS011;6875;50.852;5.672;2023-05-07T11:46:29;18.13;;;16.07;;
13607;SDS011;6875;50.852;5.672;2023-05-07T11:48:56;17.77;;;16.00;;
13607;SDS011;6875;50.852;5.672;2023-05-07T11:51:23;17.97;;;16.23;;
13607;SDS011;6875;50.852;5.672;2023-05-07T11:53:52;17.67;;;15.90;;
13607;SDS011;6875;50.852;5.672;2023-05-07T11:56:19;17.33;;;15.63;;
13607;SDS011;6875;50.852;5.672;2023-05-07T11:58:46;18.97;;;16.93;;
13607;SDS011;6875;50.852;5.672;2023-05-07T12:01:13;18.03;;;15.23;;
13607;SDS011;6875;50.852;5.672;2023-05-07T12:03:42;16.83;;;15.00;;
13607;SDS011;6875;50.852;5.672;2023-05-07T12:06:10;16.27;;;14.77;;
13607;SDS011;6875;50.852;5.672;2023-05-07T12:08:38;15.40;;;13.80;;
13607;SDS011;6875;50.852;5.672;2023-05-07T12:11:08;14.40;;;13.00;;
13607;SDS011;6875;50.852;5.672;2023-05-07T12:13:36;15.27;;;13.67;;
13607;SDS011;6875;50.852;5.672;2023-05-07T12:16:03;12.80;;;11.57;;
13607;SDS011;6875;50.852;5.672;2023-05-07T12:18:30;13.27;;;11.97;;
13607;SDS011;6875;50.852;5.672;2023-05-07T12:20:57;13.73;;;12.03;;
13607;SDS011;6875;50.852;5.672;2023-05-07T12:23:24;12.37;;;11.07;;
13607;SDS011;6875;50.852;5.672;2023-05-07T12:25:50;12.33;;;11.07;;
13607;SDS011;6875;50.852;5.672;2023-05-07T12:28:18;13.30;;;12.10;;
13607;SDS011;6875;50.852;5.672;2023-05-07T12:30:46;12.70;;;11.43;;
13607;SDS011;6875;50.852;5.672;2023-05-07T12:33:16;13.30;;;11.97;;
13607;SDS011;6875;50.852;5.672;2023-05-07T12:35:43;12.57;;;11.37;;
13607;SDS011;6875;50.852;5.672;2023-05-07T12:38:11;14.00;;;12.60;;
13607;SDS011;6875;50.852;5.672;2023-05-07T12:40:39;13.40;;;12.00;;
13607;SDS011;6875;50.852;5.672;2023-05-07T12:43:06;13.37;;;11.20;;
13607;SDS011;6875;50.852;5.672;2023-05-07T12:45:37;14.03;;;10.80;;
13607;SDS011;6875;50.852;5.672;2023-05-07T12:48:04;11.70;;;10.53;;
13607;SDS011;6875;50.852;5.672;2023-05-07T12:50:31;14.17;;;10.57;;
13607;SDS011;6875;50.852;5.672;2023-05-07T12:52:59;12.00;;;9.90;;
13607;SDS011;6875;50.852;5.672;2023-05-07T12:55:25;11.80;;;10.60;;
13607;SDS011;6875;50.852;5.672;2023-05-07T12:57:52;11.93;;;10.37;;
13607;SDS011;6875;50.852;5.672;2023-05-07T13:00:31;14.10;;;10.57;;
13607;SDS011;6875;50.852;5.672;2023-05-07T13:03:00;12.00;;;10.40;;
13607;SDS011;6875;50.852;5.672;2023-05-07T13:05:26;11.03;;;9.90;;
13607;SDS011;6875;50.852;5.672;2023-05-07T13:07:53;12.10;;;9.83;;
13607;SDS011;6875;50.852;5.672;2023-05-07T13:10:21;11.43;;;10.23;;
13607;SDS011;6875;50.852;5.672;2023-05-07T13:12:48;11.83;;;9.80;;
13607;SDS011;6875;50.852;5.672;2023-05-07T13:15:14;11.97;;;10.87;;
13607;SDS011;6875;50.852;5.672;2023-05-07T13:17:41;14.30;;;10.90;;
13607;SDS011;6875;50.852;5.672;2023-05-07T13:20:09;11.70;;;10.57;;
13607;SDS011;6875;50.852;5.672;2023-05-07T13:22:37;12.37;;;11.27;;
13607;SDS011;6875;50.852;5.672;2023-05-07T13:25:04;12.17;;;10.80;;
13607;SDS011;6875;50.852;5.672;2023-05-07T13:27:31;12.17;;;10.97;;
13607;SDS011;6875;50.852;5.672;2023-05-07T13:30:00;11.63;;;10.43;;
13607;SDS011;6875;50.852;5.672;2023-05-07T13:32:27;11.37;;;10.27;;
13607;SDS011;6875;50.852;5.672;2023-05-07T13:34:53;12.47;;;10.90;;
13607;SDS011;6875;50.852;5.672;2023-05-07T13:37:21;13.50;;;11.40;;
13607;SDS011;6875;50.852;5.672;2023-05-07T13:39:48;11.80;;;10.60;;
13607;SDS011;6875;50.852;5.672;2023-05-07T13:42:14;11.90;;;10.80;;
13607;SDS011;6875;50.852;5.672;2023-05-07T13:44:41;11.73;;;10.53;;
13607;SDS011;6875;50.852;5.672;2023-05-07T13:47:08;10.83;;;9.73;;
13607;SDS011;6875;50.852;5.672;2023-05-07T13:49:35;12.47;;;10.00;;
13607;SDS011;6875;50.852;5.672;2023-05-07T13:52:02;10.43;;;9.33;;
13607;SDS011;6875;50.852;5.672;2023-05-07T13:54:30;10.00;;;8.97;;
13607;SDS011;6875;50.852;5.672;2023-05-07T13:56:56;10.60;;;9.43;;
13607;SDS011;6875;50.852;5.672;2023-05-07T13:59:23;10.70;;;9.70;;
13607;SDS011;6875;50.852;5.672;2023-05-07T14:01:49;11.53;;;9.73;;
13607;SDS011;6875;50.852;5.672;2023-05-07T14:04:16;12.27;;;9.60;;
13607;SDS011;6875;50.852;5.672;2023-05-07T14:06:42;8.90;;;8.00;;
13607;SDS011;6875;50.852;5.672;2023-05-07T14:09:09;8.50;;;7.70;;
13607;SDS011;6875;50.852;5.672;2023-05-07T14:11:39;9.13;;;8.00;;
13607;SDS011;6875;50.852;5.672;2023-05-07T14:14:06;8.73;;;7.00;;
13607;SDS011;6875;50.852;5.672;2023-05-07T14:16:32;7.97;;;5.73;;
13607;SDS011;6875;50.852;5.672;2023-05-07T14:18:59;6.97;;;4.33;;
13607;SDS011;6875;50.852;5.672;2023-05-07T14:21:25;6.10;;;4.07;;
13607;SDS011;6875;50.852;5.672;2023-05-07T14:23:52;11.23;;;7.60;;
13607;SDS011;6875;50.852;5.672;2023-05-07T14:26:18;14.33;;;12.83;;
13607;SDS011;6875;50.852;5.672;2023-05-07T14:28:47;17.07;;;15.30;;
13607;SDS011;6875;50.852;5.672;2023-05-07T14:31:13;23.83;;;17.20;;
13607;SDS011;6875;50.852;5.672;2023-05-07T14:33:40;19.80;;;17.80;;
13607;SDS011;6875;50.852;5.672;2023-05-07T14:36:06;19.57;;;17.57;;
13607;SDS011;6875;50.852;5.672;2023-05-07T14:38:33;24.13;;;20.83;;
13607;SDS011;6875;50.852;5.672;2023-05-07T14:40:59;24.10;;;21.60;;
13607;SDS011;6875;50.852;5.672;2023-05-07T14:43:26;22.40;;;20.20;;
13607;SDS011;6875;50.852;5.672;2023-05-07T14:45:54;23.00;;;20.40;;
13607;SDS011;6875;50.852;5.672;2023-05-07T14:48:20;17.40;;;15.47;;